Time;durP1;ratioP1;P1;durP2;ratioP2;P2;SDS_P1;SDS_P2;PMS_P1;PMS_P2;Temp;Humidity;BMP_temperature;BMP_pressure;BME280_temperature;BME280_humidity;BME280_pressure;Samples;Min_cycle;Max_cycle;Signal;HPM_P1;HPM_P2
2022/07/15 00:00:37;;;;;;;3.93;3.23;;;21.20;70.00;;;;;;5033733;28;20708;-56
2022/07/15 00:03:03;;;;;;;4.63;3.63;;;21.20;69.90;;;;;;5034283;28;20270;-56
2022/07/15 00:05:28;;;;;;;4.33;3.63;;;21.20;70.00;;;;;;5035794;28;20237;-57
2022/07/15 00:07:54;;;;;;;4.10;3.80;;;21.10;70.50;;;;;;5025320;28;20205;-56
2022/07/15 00:10:23;;;;;;;4.17;3.77;;;21.10;70.40;;;;;;5044476;28;20197;-56
2022/07/15 00:12:57;;;;;;;3.40;3.17;;;21.10;70.40;;;;;;5058139;28;20190;-57
2022/07/15 00:15:25;;;;;;;6.77;3.70;;;21.10;70.40;;;;;;5046521;28;20191;-56
2022/07/15 00:17:51;;;;;;;4.63;3.57;;;21.10;70.10;;;;;;5050015;28;20190;-56
2022/07/15 00:20:18;;;;;;;4.50;3.87;;;21.10;70.30;;;;;;5054234;28;20210;-55
2022/07/15 00:22:44;;;;;;;3.77;3.47;;;21.10;70.40;;;;;;5034953;28;20183;-56
2022/07/15 00:25:12;;;;;;;4.17;3.80;;;21.00;70.40;;;;;;5024489;28;20230;-56
2022/07/15 00:27:57;;;;;;;4.10;3.40;;;21.00;70.00;;;;;;5050893;28;20190;-57
2022/07/15 00:30:24;;;;;;;5.03;3.73;;;21.00;70.20;;;;;;5069433;28;20194;-56
2022/07/15 00:32:51;;;;;;;4.20;3.53;;;21.00;70.00;;;;;;5021603;28;20194;-56
2022/07/15 00:35:17;;;;;;;6.20;3.67;;;21.00;70.50;;;;;;5025689;28;20187;-56
2022/07/15 00:37:42;;;;;;;4.43;3.97;;;21.00;70.40;;;;;;5037011;28;20244;-57
2022/07/15 00:40:08;;;;;;;4.73;3.80;;;21.00;70.90;;;;;;5053092;28;20214;-57
2022/07/15 00:42:45;;;;;;;4.67;3.60;;;21.00;70.70;;;;;;5032769;28;20221;-56
2022/07/15 00:45:20;;;;;;;4.00;3.67;;;21.00;70.40;;;;;;5043803;28;20195;-56
2022/07/15 00:47:48;;;;;;;3.87;3.57;;;21.00;70.40;;;;;;5057236;28;20189;-56
2022/07/15 00:50:15;;;;;;;4.33;3.90;;;21.00;70.80;;;;;;5044333;28;20215;-56
2022/07/15 00:52:43;;;;;;;4.37;3.90;;;21.10;70.70;;;;;;5032323;28;20228;-57
2022/07/15 00:55:11;;;;;;;4.63;4.07;;;21.00;70.80;;;;;;5051366;28;20186;-56
2022/07/15 00:57:48;;;;;;;4.73;3.33;;;21.00;71.20;;;;;;5051091;28;20197;-56
2022/07/15 01:00:14;;;;;;;4.63;4.20;;;21.00;71.30;;;;;;5050444;28;20214;-56
2022/07/15 01:02:43;;;;;;;5.13;3.70;;;20.90;70.50;;;;;;5045219;28;20197;-56
2022/07/15 01:05:10;;;;;;;3.57;3.27;;;20.90;71.00;;;;;;5047020;28;20179;-56
2022/07/15 01:07:36;;;;;;;3.87;3.57;;;20.90;70.90;;;;;;4999711;28;20200;-56
2022/07/15 01:10:02;;;;;;;4.60;3.40;;;20.90;71.00;;;;;;5024805;28;20188;-56
2022/07/15 01:12:28;;;;;;;3.93;3.57;;;21.00;70.80;;;;;;4988056;28;20192;-56
2022/07/15 01:14:56;;;;;;;4.27;3.87;;;21.00;71.00;;;;;;5004233;28;20196;-55
2022/07/15 01:17:21;;;;;;;5.67;4.03;;;20.90;71.10;;;;;;5013590;28;20205;-56
2022/07/15 01:19:47;;;;;;;7.40;3.73;;;20.90;71.10;;;;;;5004361;28;20224;-56
2022/07/15 01:22:13;;;;;;;3.90;3.30;;;21.00;71.10;;;;;;5013448;28;20218;-57
2022/07/15 01:24:41;;;;;;;5.20;4.20;;;20.90;70.90;;;;;;4972586;28;20271;-57
2022/07/15 01:27:07;;;;;;;4.83;3.60;;;21.00;70.80;;;;;;4982359;28;20183;-56
2022/07/15 01:29:33;;;;;;;5.00;3.70;;;20.90;69.80;;;;;;5013079;28;20257;-56
2022/07/15 01:31:58;;;;;;;4.27;3.47;;;20.90;70.40;;;;;;4996166;28;20230;-56
2022/07/15 01:34:24;;;;;;;3.80;3.50;;;20.90;69.80;;;;;;4965570;28;20199;-56
2022/07/15 01:36:49;;;;;;;4.20;3.80;;;21.00;68.50;;;;;;5010015;28;20210;-57
2022/07/15 01:39:15;;;;;;;4.07;3.67;;;21.00;69.00;;;;;;4978878;28;20278;-57
2022/07/15 01:41:41;;;;;;;4.23;3.50;;;20.90;68.60;;;;;;4967174;28;20183;-57
2022/07/15 01:44:06;;;;;;;3.90;3.53;;;21.00;68.60;;;;;;4983512;28;20254;-57
2022/07/15 01:46:32;;;;;;;4.07;3.53;;;21.10;69.10;;;;;;4983523;28;20187;-56
2022/07/15 01:51:42;;;;;;;3.60;3.30;;;21.00;67.80;;;;;;4986307;28;20202;-56
2022/07/15 01:54:07;;;;;;;3.40;3.10;;;21.00;69.00;;;;;;4980685;28;20290;-57
2022/07/15 01:56:36;;;;;;;4.83;3.23;;;21.10;69.00;;;;;;4973244;28;20192;-57
2022/07/15 01:59:02;;;;;;;4.70;3.17;;;21.10;69.20;;;;;;4980130;28;20211;-57
2022/07/15 02:01:27;;;;;;;4.47;3.40;;;21.20;68.70;;;;;;5023067;28;20190;-56
2022/07/15 02:03:53;;;;;;;3.17;2.87;;;21.10;68.40;;;;;;4979487;28;20278;-56
2022/07/15 02:06:19;;;;;;;4.20;3.90;;;21.10;68.10;;;;;;5019004;28;20325;-56
2022/07/15 02:08:44;;;;;;;3.00;2.70;;;21.00;69.10;;;;;;5039826;28;20263;-56
2022/07/15 02:11:11;;;;;;;5.37;3.37;;;21.10;69.00;;;;;;5038795;28;20273;-57
2022/07/15 02:13:36;;;;;;;2.97;2.77;;;21.10;69.00;;;;;;5034981;28;20194;-56
2022/07/15 02:16:02;;;;;;;3.57;3.27;;;21.10;69.10;;;;;;5052835;28;20196;-56
2022/07/15 02:18:28;;;;;;;3.27;2.97;;;21.10;69.10;;;;;;5048287;28;20206;-57
2022/07/15 02:20:54;;;;;;;4.23;3.17;;;21.00;68.50;;;;;;5044415;28;20182;-56
2022/07/15 02:23:19;;;;;;;3.70;3.40;;;20.90;68.70;;;;;;5020827;28;20198;-57
2022/07/15 02:25:45;;;;;;;4.57;3.43;;;21.00;69.30;;;;;;5024715;28;20191;-57
2022/07/15 02:28:11;;;;;;;3.70;3.40;;;20.90;69.20;;;;;;5019824;28;20213;-56
2022/07/15 02:30:39;;;;;;;4.80;3.43;;;21.00;69.20;;;;;;5034745;28;20191;-56
2022/07/15 02:33:05;;;;;;;3.37;3.10;;;20.90;69.60;;;;;;5032844;28;20187;-57
2022/07/15 02:35:32;;;;;;;3.67;3.37;;;20.90;69.70;;;;;;5041517;28;20187;-57
2022/07/15 02:37:59;;;;;;;3.03;2.83;;;20.90;69.70;;;;;;5038520;28;20302;-57
2022/07/15 02:40:25;;;;;;;3.43;3.10;;;20.90;69.30;;;;;;5039489;28;20221;-56
2022/07/15 02:42:53;;;;;;;3.47;3.17;;;20.80;69.20;;;;;;5020052;28;20187;-57
2022/07/15 02:45:21;;;;;;;3.50;3.20;;;20.90;69.40;;;;;;5022985;28;20244;-56
2022/07/15 02:47:47;;;;;;;3.73;3.17;;;20.80;69.20;;;;;;5051175;28;20190;-57
2022/07/15 02:50:14;;;;;;;3.77;2.83;;;20.80;69.40;;;;;;5051012;28;20253;-56
2022/07/15 02:52:40;;;;;;;3.33;3.03;;;20.80;69.40;;;;;;5032341;28;20190;-56
2022/07/15 02:55:06;;;;;;;6.57;2.97;;;20.80;69.50;;;;;;5058276;28;20202;-56
2022/07/15 02:57:32;;;;;;;3.67;2.97;;;20.80;69.80;;;;;;5027297;28;20205;-56
2022/07/15 02:59:58;;;;;;;3.13;2.83;;;20.80;69.80;;;;;;5020006;28;20206;-56
2022/07/15 03:02:24;;;;;;;3.53;2.80;;;20.70;69.80;;;;;;5033164;28;20214;-56
2022/07/15 03:04:50;;;;;;;3.43;3.03;;;20.70;70.10;;;;;;5036067;28;20217;-56
2022/07/15 03:07:15;;;;;;;3.23;2.93;;;20.70;70.30;;;;;;5046425;28;20238;-56
2022/07/15 03:09:41;;;;;;;5.77;3.00;;;20.60;70.30;;;;;;5019656;28;20195;-56
2022/07/15 03:12:07;;;;;;;2.93;2.73;;;20.70;70.10;;;;;;5035867;28;20226;-56
2022/07/15 03:14:32;;;;;;;3.37;3.07;;;20.70;70.20;;;;;;5048432;28;20273;-56
2022/07/15 03:16:58;;;;;;;2.67;2.47;;;20.60;70.30;;;;;;5042888;28;20239;-57
2022/07/15 03:19:24;;;;;;;3.00;2.80;;;20.60;70.00;;;;;;5023694;28;20219;-57
2022/07/15 03:21:50;;;;;;;4.33;2.80;;;20.60;70.30;;;;;;5050044;28;20189;-56
2022/07/15 03:24:16;;;;;;;4.60;3.00;;;20.60;70.20;;;;;;5044486;28;20191;-56
2022/07/15 03:26:42;;;;;;;3.87;2.90;;;20.60;69.70;;;;;;5059859;28;20179;-56
2022/07/15 03:29:09;;;;;;;2.80;2.60;;;20.70;69.80;;;;;;5046705;28;20186;-56
2022/07/15 03:31:34;;;;;;;2.90;2.60;;;20.70;69.70;;;;;;5028234;28;20183;-57
2022/07/15 03:34:00;;;;;;;4.07;2.60;;;20.70;69.90;;;;;;5055308;28;20193;-57
2022/07/15 03:36:25;;;;;;;2.83;2.63;;;20.60;70.40;;;;;;5028758;28;20194;-57
2022/07/15 03:38:51;;;;;;;4.53;2.47;;;20.50;70.20;;;;;;5039754;28;20216;-57
2022/07/15 03:41:18;;;;;;;4.03;2.40;;;20.30;70.90;;;;;;5034249;28;20194;-57
2022/07/15 03:43:44;;;;;;;2.73;2.40;;;20.30;71.10;;;;;;5011735;28;20179;-57
2022/07/15 03:46:10;;;;;;;4.53;2.90;;;20.40;71.20;;;;;;5033882;28;20191;-57
2022/07/15 03:48:35;;;;;;;3.00;2.70;;;20.30;71.30;;;;;;5047438;28;20187;-57
2022/07/15 03:51:01;;;;;;;3.00;2.73;;;20.30;71.40;;;;;;5051138;28;20178;-56
2022/07/15 03:53:27;;;;;;;2.50;2.30;;;20.30;71.20;;;;;;5042670;28;20198;-56
2022/07/15 03:55:52;;;;;;;2.00;1.90;;;20.30;71.90;;;;;;5036688;28;20204;-55
2022/07/15 03:58:18;;;;;;;2.47;2.27;;;20.40;72.00;;;;;;5040976;28;20191;-56
2022/07/15 04:00:44;;;;;;;2.63;2.43;;;20.50;72.10;;;;;;5027741;28;20254;-57
2022/07/15 04:03:09;;;;;;;2.73;2.53;;;20.50;71.00;;;;;;5028387;28;20193;-61
2022/07/15 04:05:35;;;;;;;2.77;2.57;;;20.30;72.20;;;;;;5024337;28;20237;-57
2022/07/15 04:08:00;;;;;;;3.60;2.80;;;20.40;71.80;;;;;;5036749;28;20198;-57
2022/07/15 04:10:27;;;;;;;2.63;2.43;;;20.50;72.20;;;;;;5022662;28;20203;-57
2022/07/15 04:12:52;;;;;;;3.97;2.10;;;20.60;72.20;;;;;;5052434;28;20223;-57
2022/07/15 04:15:18;;;;;;;2.77;2.57;;;20.50;72.50;;;;;;5018198;28;20290;-57
2022/07/15 04:17:44;;;;;;;2.37;2.13;;;20.60;72.20;;;;;;5049935;28;20190;-57
2022/07/15 04:20:12;;;;;;;5.10;2.87;;;20.60;72.40;;;;;;5035760;28;20225;-57
2022/07/15 04:22:42;;;;;;;2.90;2.60;;;20.60;72.70;;;;;;5037779;28;20187;-57
2022/07/15 04:25:09;;;;;;;2.77;2.57;;;20.50;72.60;;;;;;5042259;28;20679;-57
2022/07/15 04:27:35;;;;;;;5.17;2.80;;;20.50;72.40;;;;;;5034905;28;20182;-57
2022/07/15 04:30:02;;;;;;;3.33;2.50;;;20.30;72.90;;;;;;5037505;28;20191;-57
2022/07/15 04:32:28;;;;;;;3.07;2.70;;;20.50;73.20;;;;;;5049936;28;20186;-57
2022/07/15 04:34:54;;;;;;;3.40;2.80;;;20.50;72.40;;;;;;5034960;28;20687;-57
2022/07/15 04:37:21;;;;;;;3.43;2.60;;;20.50;72.20;;;;;;5022984;28;20262;-57
2022/07/15 04:39:47;;;;;;;2.97;2.67;;;20.40;72.80;;;;;;5029753;28;20305;-57
2022/07/15 04:42:13;;;;;;;3.20;3.00;;;20.50;72.20;;;;;;5032210;28;20305;-52
2022/07/15 04:44:38;;;;;;;2.90;2.63;;;20.50;72.50;;;;;;5035464;28;20190;-52
2022/07/15 04:47:04;;;;;;;3.40;3.10;;;20.50;73.20;;;;;;5028237;28;20191;-54
2022/07/15 04:52:15;;;;;;;4.17;2.80;;;20.60;73.70;;;;;;5045928;28;20223;-53
2022/07/15 04:54:41;;;;;;;3.97;3.30;;;20.60;73.70;;;;;;5045108;28;20202;-55
2022/07/15 04:57:06;;;;;;;3.30;3.00;;;20.60;73.80;;;;;;5030442;28;20202;-53
2022/07/15 04:59:32;;;;;;;3.20;2.90;;;20.60;73.30;;;;;;5025712;28;20210;-54
2022/07/15 05:01:58;;;;;;;3.03;2.83;;;20.70;73.50;;;;;;5023044;28;20218;-54
2022/07/15 05:04:24;;;;;;;4.50;3.50;;;20.70;73.30;;;;;;5036147;28;20210;-54
2022/07/15 05:06:49;;;;;;;4.67;2.90;;;20.70;73.80;;;;;;5036400;28;20276;-53
2022/07/15 05:09:15;;;;;;;6.20;3.33;;;20.70;73.80;;;;;;5035738;28;20197;-54
2022/07/15 05:11:41;;;;;;;3.00;2.70;;;20.70;74.10;;;;;;5053185;28;20194;-52
2022/07/15 05:14:06;;;;;;;3.73;2.87;;;20.70;74.40;;;;;;5044110;28;20205;-53
2022/07/15 05:16:32;;;;;;;3.70;3.40;;;20.60;74.70;;;;;;5045295;28;20199;-53
2022/07/15 05:18:58;;;;;;;2.90;2.70;;;20.70;74.90;;;;;;5036281;28;20219;-54
2022/07/15 05:21:23;;;;;;;3.73;3.10;;;20.70;75.00;;;;;;5044293;28;20259;-54
2022/07/15 05:23:49;;;;;;;4.20;3.10;;;20.80;74.90;;;;;;5032944;28;20191;-53
2022/07/15 05:26:15;;;;;;;5.17;3.13;;;20.80;74.90;;;;;;5033146;28;20191;-54
2022/07/15 05:28:41;;;;;;;3.40;3.10;;;20.80;75.00;;;;;;5040408;28;20190;-54
2022/07/15 05:31:07;;;;;;;3.93;3.50;;;20.80;74.90;;;;;;5033713;28;20202;-55
2022/07/15 05:33:32;;;;;;;3.33;3.03;;;20.80;74.60;;;;;;5046813;28;20237;-51
2022/07/15 05:35:58;;;;;;;3.60;3.30;;;20.80;74.40;;;;;;5027980;28;20195;-54
2022/07/15 05:38:24;;;;;;;4.23;3.33;;;20.90;74.70;;;;;;5034988;28;20190;-53
2022/07/15 05:40:50;;;;;;;3.93;3.53;;;20.90;74.50;;;;;;5024608;28;20197;-53
2022/07/15 05:43:16;;;;;;;4.73;3.20;;;20.90;74.50;;;;;;5027660;28;20270;-55
2022/07/15 05:45:42;;;;;;;3.73;3.30;;;20.90;74.70;;;;;;5011365;28;20186;-54
2022/07/15 05:48:08;;;;;;;3.73;3.43;;;21.00;75.00;;;;;;5045985;28;20217;-54
2022/07/15 05:50:34;;;;;;;5.53;3.70;;;21.00;75.00;;;;;;5049957;28;20186;-51
2022/07/15 05:53:00;;;;;;;4.10;3.70;;;21.00;75.00;;;;;;5032398;28;20206;-53
2022/07/15 05:55:25;;;;;;;4.60;4.20;;;20.90;75.20;;;;;;5032944;28;20198;-61
2022/07/15 05:57:51;;;;;;;5.73;4.40;;;21.00;75.50;;;;;;5052176;28;20198;-59
2022/07/15 06:00:17;;;;;;;6.20;5.70;;;20.90;75.50;;;;;;5033305;28;20225;-59
2022/07/15 06:02:42;;;;;;;5.77;5.17;;;20.90;75.50;;;;;;5008911;28;20244;-59
2022/07/15 06:05:09;;;;;;;7.03;4.60;;;21.00;75.60;;;;;;5014809;28;20668;-59
2022/07/15 06:07:35;;;;;;;4.40;4.00;;;21.00;75.70;;;;;;5006533;28;20199;-61
2022/07/15 06:10:01;;;;;;;5.10;4.60;;;21.00;75.20;;;;;;5001257;28;20195;-61
2022/07/15 06:12:27;;;;;;;5.03;4.30;;;21.00;75.60;;;;;;5004598;28;20191;-60
2022/07/15 06:14:53;;;;;;;5.53;4.03;;;21.10;75.10;;;;;;4986317;28;20195;-59
2022/07/15 06:17:19;;;;;;;4.27;3.40;;;21.10;74.40;;;;;;4983005;28;20326;-55
2022/07/15 06:19:44;;;;;;;3.87;3.57;;;21.20;74.30;;;;;;5016304;28;20203;-62
2022/07/15 06:22:10;;;;;;;5.10;4.20;;;21.20;73.70;;;;;;5018289;28;20221;-54
2022/07/15 06:24:36;;;;;;;3.80;3.50;;;21.20;74.30;;;;;;5014052;28;20183;-57
2022/07/15 06:27:01;;;;;;;5.73;3.70;;;21.30;74.60;;;;;;5003402;28;20236;-57
2022/07/15 06:29:27;;;;;;;4.77;3.43;;;21.30;74.20;;;;;;4976437;28;20299;-57
2022/07/15 06:31:53;;;;;;;5.67;4.13;;;21.30;74.20;;;;;;4978451;28;20204;-57
2022/07/15 06:34:18;;;;;;;4.70;4.00;;;21.30;73.70;;;;;;4997080;28;20199;-57
2022/07/15 06:36:44;;;;;;;7.47;3.80;;;21.30;73.50;;;;;;4995218;28;20191;-56
2022/07/15 06:39:10;;;;;;;4.47;4.07;;;21.30;74.70;;;;;;4999016;28;20215;-57
2022/07/15 06:41:36;;;;;;;4.17;3.77;;;21.40;75.40;;;;;;4987714;28;20184;-58
2022/07/15 06:44:05;;;;;;;5.67;3.97;;;21.40;75.80;;;;;;4982016;28;20195;-56
2022/07/15 06:46:30;;;;;;;4.13;3.73;;;21.40;75.70;;;;;;5016629;28;20194;-55
2022/07/15 06:48:56;;;;;;;5.73;3.73;;;21.40;75.10;;;;;;5003071;28;20206;-55
2022/07/15 06:51:22;;;;;;;5.80;3.83;;;21.50;74.70;;;;;;4994707;28;20199;-57
2022/07/15 06:53:47;;;;;;;4.40;4.00;;;21.40;73.30;;;;;;4982856;28;20337;-50
2022/07/15 06:56:13;;;;;;;5.00;3.90;;;21.50;75.10;;;;;;4997340;28;20215;-53
2022/07/15 06:58:39;;;;;;;5.20;3.60;;;21.50;75.20;;;;;;4995214;28;20223;-50
2022/07/15 07:01:05;;;;;;;6.23;3.77;;;21.50;75.60;;;;;;5010235;28;20278;-54
2022/07/15 07:03:31;;;;;;;3.73;3.43;;;21.50;74.40;;;;;;4989705;28;20211;-52
2022/07/15 07:05:57;;;;;;;5.37;3.30;;;21.60;75.40;;;;;;5000876;28;20266;-55
2022/07/15 07:08:23;;;;;;;4.40;3.43;;;21.50;75.30;;;;;;5028392;28;20254;-52
2022/07/15 07:10:49;;;;;;;3.80;3.40;;;21.50;75.30;;;;;;5034293;28;20220;-56
2022/07/15 07:13:15;;;;;;;5.73;3.90;;;21.50;75.10;;;;;;5021913;28;20194;-56
2022/07/15 07:15:41;;;;;;;6.27;3.70;;;21.50;74.80;;;;;;5040955;28;20187;-61
2022/07/15 07:18:06;;;;;;;4.17;3.77;;;21.50;74.80;;;;;;5018739;28;20187;-61
2022/07/15 07:20:32;;;;;;;4.40;3.70;;;21.50;75.20;;;;;;5041168;28;20218;-60
2022/07/15 07:22:58;;;;;;;12.03;3.80;;;21.50;75.10;;;;;;5048053;28;20226;-60
2022/07/15 07:25:24;;;;;;;4.20;3.40;;;21.50;75.30;;;;;;5034125;28;20194;-59
2022/07/15 07:27:49;;;;;;;4.40;3.73;;;21.60;75.50;;;;;;5014017;28;20191;-60
2022/07/15 07:30:15;;;;;;;4.80;3.43;;;21.60;74.70;;;;;;5032806;28;20222;-60
2022/07/15 07:32:41;;;;;;;4.63;3.60;;;21.60;74.90;;;;;;5036299;28;20206;-59
2022/07/15 07:35:08;;;;;;;4.13;3.60;;;21.60;75.70;;;;;;5033605;28;20199;-60
2022/07/15 07:37:38;;;;;;;4.03;3.63;;;21.70;75.90;;;;;;5030087;28;20194;-56
2022/07/15 07:40:04;;;;;;;6.40;3.63;;;21.70;75.20;;;;;;5044114;28;20312;-56
2022/07/15 07:42:30;;;;;;;4.23;3.33;;;21.70;75.50;;;;;;5025513;28;20195;-57
2022/07/15 07:44:56;;;;;;;3.10;2.90;;;21.80;74.40;;;;;;5048903;28;20193;-55
2022/07/15 07:47:21;;;;;;;3.20;2.77;;;21.80;74.40;;;;;;5050689;28;20217;-56
2022/07/15 07:49:48;;;;;;;6.83;3.13;;;21.80;73.10;;;;;;5025326;28;20467;-55
2022/07/15 07:52:15;;;;;;;3.70;2.70;;;21.80;73.70;;;;;;5049000;28;20191;-56
2022/07/15 07:54:41;;;;;;;5.83;2.80;;;21.80;74.10;;;;;;5029552;28;20198;-55
2022/07/15 07:57:07;;;;;;;4.77;2.90;;;21.90;74.20;;;;;;5034749;28;20194;-55
2022/07/15 07:59:33;;;;;;;4.17;2.80;;;21.90;74.10;;;;;;5009218;28;20215;-55
2022/07/15 08:01:58;;;;;;;2.97;2.70;;;21.90;72.00;;;;;;5039780;28;20248;-55
2022/07/15 08:04:24;;;;;;;3.43;2.60;;;21.90;72.40;;;;;;5032943;28;20194;-56
2022/07/15 08:06:50;;;;;;;3.13;2.77;;;21.90;71.50;;;;;;5037144;28;20321;-57
2022/07/15 08:09:16;;;;;;;3.03;2.73;;;21.90;71.90;;;;;;5024215;28;20198;-57
2022/07/15 08:11:42;;;;;;;4.37;3.37;;;22.00;72.60;;;;;;5043365;28;20189;-57
2022/07/15 08:14:08;;;;;;;3.20;2.90;;;22.10;72.60;;;;;;5022580;28;20210;-57
2022/07/15 08:16:34;;;;;;;2.87;2.67;;;22.10;73.60;;;;;;5032807;28;20240;-57
2022/07/15 08:19:00;;;;;;;3.53;3.23;;;22.10;73.70;;;;;;5051324;28;20217;-57
2022/07/15 08:21:26;;;;;;;4.70;3.57;;;22.20;72.30;;;;;;5035679;28;20218;-57
2022/07/15 08:23:51;;;;;;;3.27;2.97;;;22.20;71.50;;;;;;5049649;28;20186;-57
2022/07/15 08:26:23;;;;;;;4.17;3.00;;;22.20;71.60;;;;;;5034332;28;20179;-57
2022/07/15 08:28:50;;;;;;;3.83;2.80;;;22.20;72.00;;;;;;5031450;28;20213;-53
2022/07/15 08:31:16;;;;;;;3.77;2.90;;;22.30;72.50;;;;;;5056617;28;20190;-55
2022/07/15 08:33:42;;;;;;;3.77;2.97;;;22.30;71.00;;;;;;5032289;28;20187;-55
2022/07/15 08:36:08;;;;;;;3.83;3.27;;;22.30;71.40;;;;;;5023416;28;20290;-53
2022/07/15 08:38:33;;;;;;;4.53;3.50;;;22.20;71.80;;;;;;5016480;28;20237;-52
2022/07/15 08:40:59;;;;;;;4.10;3.70;;;22.30;73.20;;;;;;5024394;28;20201;-53
2022/07/15 08:43:25;;;;;;;5.40;3.67;;;22.30;73.20;;;;;;5033735;28;20194;-53
2022/07/15 08:45:51;;;;;;;5.97;3.80;;;22.40;70.60;;;;;;5024770;28;20198;-52
2022/07/15 08:48:18;;;;;;;5.17;3.57;;;22.30;71.30;;;;;;5050678;28;20190;-54
2022/07/15 08:50:44;;;;;;;5.30;3.63;;;22.30;72.00;;;;;;5034123;28;20222;-53
2022/07/15 08:53:10;;;;;;;3.97;3.57;;;22.20;70.80;;;;;;5038475;28;20241;-53
2022/07/15 08:55:36;;;;;;;4.43;3.60;;;22.20;71.20;;;;;;5032609;28;20198;-54
2022/07/15 08:58:02;;;;;;;5.03;3.53;;;22.20;71.40;;;;;;5031893;28;20209;-54
2022/07/15 09:00:28;;;;;;;4.10;3.70;;;22.20;71.90;;;;;;5057190;28;20205;-54
2022/07/15 09:03:00;;;;;;;4.33;3.93;;;22.10;71.80;;;;;;5040704;28;20193;-54
2022/07/15 09:05:29;;;;;;;3.87;3.43;;;22.10;72.30;;;;;;5039466;28;20287;-54
2022/07/15 09:07:56;;;;;;;3.30;3.00;;;22.10;72.40;;;;;;5051908;28;20182;-59
2022/07/15 09:10:24;;;;;;;3.97;3.57;;;22.10;72.90;;;;;;5037300;28;20213;-59
2022/07/15 09:12:53;;;;;;;3.90;3.60;;;22.10;72.10;;;;;;5041535;28;20207;-55
2022/07/15 09:15:31;;;;;;;4.20;3.80;;;22.10;72.20;;;;;;5044975;28;20197;-54
2022/07/15 09:18:06;;;;;;;3.57;3.27;;;22.10;72.30;;;;;;5019745;28;20267;-57
2022/07/15 09:20:32;;;;;;;4.77;3.80;;;22.10;73.30;;;;;;5031378;28;20206;-58
2022/07/15 09:22:58;;;;;;;5.47;3.57;;;22.10;72.90;;;;;;5025355;28;20341;-58
2022/07/15 09:25:24;;;;;;;4.80;3.50;;;22.10;72.60;;;;;;5030882;28;20392;-58
2022/07/15 09:27:50;;;;;;;6.37;3.43;;;22.20;71.70;;;;;;5025249;28;20262;-58
2022/07/15 09:33:39;;;;;;;4.80;3.40;;;22.30;72.70;;;;;;5032445;28;20260;-58
2022/07/15 09:36:15;;;;;;;4.57;3.10;;;22.50;72.90;;;;;;5045196;28;20202;-58
2022/07/15 09:38:56;;;;;;;3.80;3.43;;;22.50;71.60;;;;;;5032813;28;20268;-59
2022/07/15 09:41:28;;;;;;;4.83;3.60;;;22.50;69.90;;;;;;5050490;28;20178;-58
2022/07/15 09:44:03;;;;;;;3.70;3.40;;;22.60;71.30;;;;;;5032064;28;20254;-58
2022/07/15 09:46:47;;;;;;;3.50;3.20;;;22.60;69.30;;;;;;5041734;28;20201;-58
2022/07/15 09:49:31;;;;;;;5.90;3.47;;;22.60;70.20;;;;;;5044953;28;20260;-58
2022/07/15 09:52:01;;;;;;;4.70;3.70;;;22.70;69.90;;;;;;5048682;28;20190;-56
2022/07/15 09:54:48;;;;;;;3.80;3.50;;;22.70;69.00;;;;;;5046628;28;20333;-57
2022/07/15 09:57:18;;;;;;;3.67;3.37;;;22.70;70.30;;;;;;5050743;28;20182;-57
2022/07/15 09:59:50;;;;;;;4.83;3.40;;;22.70;70.60;;;;;;5033577;28;20214;-57
2022/07/15 10:02:16;;;;;;;3.73;3.43;;;22.60;70.10;;;;;;5044521;28;20186;-57
2022/07/15 10:04:42;;;;;;;5.43;3.40;;;22.60;69.50;;;;;;5033469;28;20293;-57
2022/07/15 10:07:12;;;;;;;5.33;3.50;;;22.50;69.80;;;;;;5036349;28;20553;-57
2022/07/15 10:09:39;;;;;;;5.00;3.10;;;22.60;69.20;;;;;;5045360;28;20569;-57
2022/07/15 10:12:16;;;;;;;4.50;3.60;;;22.60;70.40;;;;;;5018164;28;20634;-57
2022/07/15 10:15:46;;;;;;;5.30;3.40;;;22.70;68.80;;;;;;5041215;28;20182;-58
2022/07/15 10:18:19;;;;;;;4.20;3.67;;;22.80;70.00;;;;;;5009931;28;20314;-57
2022/07/15 10:21:07;;;;;;;5.60;3.53;;;22.90;67.60;;;;;;4994162;28;20233;-56
2022/07/15 10:23:47;;;;;;;4.37;3.80;;;23.00;67.70;;;;;;5043152;28;20195;-56
2022/07/15 10:26:55;;;;;;;3.70;3.40;;;23.00;67.40;;;;;;5044227;28;20186;-57
2022/07/15 10:29:22;;;;;;;4.00;3.03;;;23.10;68.20;;;;;;5024507;28;20239;-57
2022/07/15 10:31:56;;;;;;;4.83;3.40;;;23.10;69.20;;;;;;5033934;28;20187;-57
2022/07/15 10:34:23;;;;;;;4.67;3.27;;;23.20;70.40;;;;;;5051416;28;20193;-56
2022/07/15 10:36:56;;;;;;;3.07;2.80;;;23.20;70.60;;;;;;5018700;28;20339;-57
2022/07/15 10:39:25;;;;;;;6.53;3.07;;;23.20;70.70;;;;;;5049186;28;20206;-57
2022/07/15 10:42:02;;;;;;;3.37;3.17;;;23.20;69.60;;;;;;5027354;28;20228;-56
2022/07/15 10:44:30;;;;;;;3.27;3.07;;;23.30;68.60;;;;;;5038254;28;20175;-57
2022/07/15 10:47:11;;;;;;;3.30;3.00;;;23.30;69.90;;;;;;5037097;28;20190;-57
2022/07/15 10:49:38;;;;;;;3.87;3.27;;;23.30;72.00;;;;;;5034682;28;20190;-57
2022/07/15 10:52:24;;;;;;;3.47;3.17;;;23.30;70.80;;;;;;5004926;28;20194;-56
2022/07/15 10:54:57;;;;;;;4.27;2.90;;;23.40;70.40;;;;;;5051826;28;20182;-57
2022/07/15 10:57:41;;;;;;;4.53;3.00;;;23.40;69.40;;;;;;5041689;28;20187;-57
2022/07/15 11:00:32;;;;;;;3.67;2.87;;;23.40;69.70;;;;;;5055398;28;20296;-56
2022/07/15 11:03:01;;;;;;;5.20;3.53;;;23.40;69.00;;;;;;5046273;28;20210;-56
2022/07/15 11:05:27;;;;;;;3.47;3.17;;;23.40;69.40;;;;;;5055553;28;20231;-55
2022/07/15 11:07:53;;;;;;;4.80;3.37;;;23.30;70.40;;;;;;5002668;28;20277;-55
2022/07/15 11:10:20;;;;;;;3.20;3.00;;;23.30;70.60;;;;;;5002607;28;20322;-56
2022/07/15 11:12:49;;;;;;;3.50;3.20;;;23.30;70.10;;;;;;5010754;28;20190;-55
2022/07/15 11:15:19;;;;;;;3.47;3.13;;;23.30;71.20;;;;;;5014299;28;20187;-55
2022/07/15 11:17:51;;;;;;;3.60;3.30;;;23.30;70.80;;;;;;5031017;28;20179;-55
2022/07/15 11:20:18;;;;;;;3.20;2.90;;;23.30;70.70;;;;;;5006610;28;20340;-54
2022/07/15 11:22:49;;;;;;;3.43;3.17;;;23.30;71.10;;;;;;5002558;28;20202;-56
2022/07/15 11:25:26;;;;;;;3.73;3.40;;;23.40;70.60;;;;;;4993452;28;20194;-56
2022/07/15 11:28:11;;;;;;;9.73;3.80;;;23.50;71.00;;;;;;5017041;28;20179;-56
2022/07/15 11:30:47;;;;;;;3.97;2.90;;;23.50;70.30;;;;;;5002678;28;20184;-56
2022/07/15 11:33:17;;;;;;;3.43;3.13;;;23.60;70.50;;;;;;5009270;28;20189;-56
2022/07/15 11:35:50;;;;;;;3.57;3.10;;;23.60;71.00;;;;;;5002095;28;20270;-57
2022/07/15 11:38:17;;;;;;;3.90;3.60;;;23.60;68.60;;;;;;5009330;28;20186;-56
2022/07/15 11:46:15;;;;;;;3.03;2.83;;;23.40;69.90;;;;;;5036146;28;20192;-57
2022/07/15 11:48:41;;;;;;;3.30;3.00;;;23.40;71.00;;;;;;5008723;28;20271;-57
2022/07/15 11:51:09;;;;;;;3.47;3.17;;;23.50;69.60;;;;;;5001606;28;20191;-57
2022/07/15 11:53:40;;;;;;;3.47;2.93;;;23.60;70.90;;;;;;4985001;28;20197;-62
2022/07/15 11:56:08;;;;;;;3.80;3.40;;;23.50;69.50;;;;;;5004155;28;20186;-56
2022/07/15 11:58:40;;;;;;;4.03;3.63;;;23.60;69.40;;;;;;4982492;28;20191;-57
2022/07/15 12:01:12;;;;;;;4.37;3.10;;;23.50;67.90;;;;;;5004794;28;20176;-57
2022/07/15 12:03:41;;;;;;;3.43;2.90;;;23.40;69.00;;;;;;5001495;28;20203;-57
2022/07/15 12:06:19;;;;;;;3.93;3.53;;;23.40;70.40;;;;;;5031178;28;20261;-57
2022/07/15 12:08:46;;;;;;;4.03;3.63;;;23.40;71.10;;;;;;5053793;28;20234;-57
2022/07/15 12:11:17;;;;;;;3.17;2.67;;;23.30;71.50;;;;;;5041279;28;20218;-57
2022/07/15 12:13:50;;;;;;;3.40;3.10;;;23.40;71.30;;;;;;5039286;28;20183;-54
2022/07/15 12:16:20;;;;;;;3.27;2.97;;;23.30;71.10;;;;;;5048601;28;20178;-53
2022/07/15 12:18:47;;;;;;;5.03;3.90;;;23.40;71.30;;;;;;5052810;28;20269;-57
2022/07/15 12:21:13;;;;;;;4.33;3.50;;;23.40;71.30;;;;;;5048650;28;20209;-57
2022/07/15 12:23:39;;;;;;;4.43;3.67;;;23.50;71.40;;;;;;5068596;28;20194;-57
2022/07/15 12:26:08;;;;;;;4.30;3.67;;;23.60;70.80;;;;;;5052445;28;20187;-57
2022/07/15 12:28:35;;;;;;;3.83;3.50;;;23.70;70.70;;;;;;5050334;28;20206;-57
2022/07/15 12:31:01;;;;;;;4.40;4.00;;;23.70;70.70;;;;;;5052910;28;20217;-57
2022/07/15 12:33:27;;;;;;;3.53;3.23;;;23.70;69.80;;;;;;5051013;28;20204;-57
2022/07/15 12:36:13;;;;;;;4.13;3.73;;;23.70;69.80;;;;;;5054923;28;20178;-57
2022/07/15 12:38:39;;;;;;;3.67;3.23;;;23.70;69.80;;;;;;5052415;28;20191;-57
2022/07/15 12:41:07;;;;;;;3.97;3.67;;;23.80;69.00;;;;;;5034566;28;20186;-57
2022/07/15 12:43:58;;;;;;;3.40;3.10;;;23.80;68.80;;;;;;5039965;28;20277;-57
2022/07/15 12:46:52;;;;;;;5.17;3.57;;;24.10;68.60;;;;;;5055649;28;20189;-57
2022/07/15 12:49:42;;;;;;;4.17;3.87;;;24.50;67.70;;;;;;5053672;28;20277;-57
2022/07/15 12:52:31;;;;;;;4.30;3.90;;;24.60;66.40;;;;;;5050881;28;20186;-57
2022/07/15 12:54:59;;;;;;;4.67;3.93;;;24.30;65.40;;;;;;5047528;28;20206;-57
2022/07/15 12:57:34;;;;;;;4.20;3.90;;;24.20;66.10;;;;;;5080552;28;20200;-57
2022/07/15 13:00:09;;;;;;;4.33;3.93;;;24.20;67.10;;;;;;5061039;28;20205;-57
2022/07/15 13:02:55;;;;;;;3.73;3.43;;;24.10;67.40;;;;;;5052640;28;20197;-57
2022/07/15 13:05:21;;;;;;;4.10;3.70;;;24.10;66.50;;;;;;5051105;28;20226;-57
2022/07/15 13:07:47;;;;;;;4.30;3.90;;;24.10;68.10;;;;;;5016607;28;20190;-57